createdAt,value
2019-02-06T00:00:41.057Z,27.70
2019-02-06T00:01:41.188Z,27.80
2019-02-06T00:02:41.315Z,27.30
2019-02-06T00:03:41.444Z,27.50
2019-02-06T00:04:41.574Z,27.60
2019-02-06T00:05:41.701Z,28.90
2019-02-06T00:06:41.836Z,27.20
2019-02-06T00:07:41.969Z,29.70
2019-02-06T00:08:42.090Z,27.80
2019-02-06T00:09:42.221Z,28.00
2019-02-06T00:10:42.350Z,28.20
2019-02-06T00:11:42.500Z,28.00
2019-02-06T00:12:42.625Z,27.90
2019-02-06T00:13:42.774Z,27.60
2019-02-06T00:14:42.894Z,28.10
2019-02-06T00:15:43.024Z,27.10
2019-02-06T00:16:43.149Z,27.30
2019-02-06T00:17:43.277Z,27.90
2019-02-06T00:18:43.407Z,26.90
2019-02-06T00:19:43.561Z,27.00
2019-02-06T00:20:43.721Z,26.80
2019-02-06T00:21:43.846Z,27.10
2019-02-06T00:22:43.974Z,27.60
2019-02-06T00:23:44.141Z,27.10
2019-02-06T00:24:44.244Z,27.90
2019-02-06T00:25:44.373Z,28.60
2019-02-06T00:26:44.496Z,28.60
2019-02-06T00:27:44.640Z,27.70
2019-02-06T00:28:44.765Z,27.20
2019-02-06T00:29:44.894Z,26.80
2019-02-06T00:30:45.028Z,27.40
2019-02-06T00:31:45.158Z,27.70
2019-02-06T00:32:45.288Z,27.80
2019-02-06T00:33:45.414Z,28.10
2019-02-06T00:34:45.568Z,26.70
2019-02-06T00:37:17.454Z,28.00
2019-02-06T00:38:17.580Z,27.30
2019-02-06T00:39:17.708Z,27.00
2019-02-06T00:40:17.847Z,28.60
2019-02-06T00:41:18.052Z,28.50
2019-02-06T00:42:18.097Z,28.70
2019-02-06T00:43:18.187Z,28.30
2019-02-06T00:44:18.318Z,29.50
2019-02-06T00:45:19.122Z,29.20
2019-02-06T00:46:18.621Z,28.20
2019-02-06T00:47:18.754Z,29.10
2019-02-06T00:48:18.865Z,28.00
2019-02-06T00:49:18.993Z,29.00
2019-02-06T00:50:19.118Z,28.40
2019-02-06T00:51:19.285Z,29.50
2019-02-06T00:52:19.458Z,29.30
2019-02-06T00:53:19.592Z,29.80
2019-02-06T00:54:19.704Z,29.70
2019-02-06T00:55:19.946Z,29.00
2019-02-06T00:56:19.978Z,30.10
2019-02-06T00:57:20.118Z,30.30
2019-02-06T00:58:20.240Z,29.20
2019-02-06T00:59:20.400Z,29.60
2019-02-06T01:00:20.517Z,28.90
2019-02-06T01:01:20.644Z,29.40
2019-02-06T01:02:20.771Z,28.10
2019-02-06T01:03:20.918Z,28.60
2019-02-06T01:04:21.040Z,29.70
2019-02-06T01:05:21.169Z,29.10
2019-02-06T01:06:21.294Z,29.20
2019-02-06T01:07:21.446Z,29.90
2019-02-06T01:08:21.613Z,28.90
2019-02-06T01:09:21.733Z,29.60
2019-02-06T01:10:21.854Z,28.60
2019-02-06T01:11:21.996Z,28.20
2019-02-06T01:12:22.121Z,28.60
2019-02-06T01:13:22.271Z,28.20
2019-02-06T01:14:22.483Z,28.80
2019-02-06T01:15:22.602Z,28.70
2019-02-06T01:16:22.617Z,28.50
2019-02-06T01:17:25.761Z,30.00
2019-02-06T01:18:22.867Z,29.90
2019-02-06T01:19:23.007Z,28.10
2019-02-06T01:20:23.134Z,27.60
2019-02-06T01:21:23.281Z,27.70
2019-02-06T01:22:23.448Z,28.70
2019-02-06T01:23:23.576Z,26.70
2019-02-06T01:24:23.693Z,27.80
2019-02-06T01:25:23.836Z,26.70
2019-02-06T01:26:23.963Z,28.50
2019-02-06T01:27:24.083Z,28.00
2019-02-06T01:28:24.229Z,28.00
2019-02-06T01:29:24.353Z,28.50
2019-02-06T01:30:24.476Z,27.90
2019-02-06T01:31:24.750Z,28.40
2019-02-06T01:32:24.695Z,28.40
2019-02-06T01:33:24.820Z,28.40
2019-02-06T01:34:24.957Z,28.10
2019-02-06T01:35:25.086Z,28.30
2019-02-06T01:36:25.214Z,29.50
2019-02-06T01:37:25.348Z,29.60
2019-02-06T01:38:25.471Z,29.60
2019-02-06T01:39:25.594Z,28.60
2019-02-06T01:40:25.722Z,29.10
2019-02-06T01:41:25.846Z,29.70
2019-02-06T01:42:25.975Z,28.30
2019-02-06T01:43:26.099Z,28.80
2019-02-06T01:44:26.229Z,28.80
2019-02-06T01:45:26.420Z,29.00
2019-02-06T01:46:26.422Z,28.30
2019-02-06T01:47:26.553Z,29.20
2019-02-06T01:48:26.677Z,29.20
2019-02-06T01:49:26.809Z,28.90
2019-02-06T01:50:26.937Z,28.40
2019-02-06T01:51:27.057Z,29.20
2019-02-06T01:52:27.182Z,29.80
2019-02-06T01:53:27.316Z,27.80
2019-02-06T01:54:27.444Z,27.30
2019-02-06T01:55:27.572Z,28.80
2019-02-06T01:56:27.695Z,28.90
2019-02-06T01:57:27.822Z,28.70
2019-02-06T01:58:27.949Z,29.30
2019-02-06T01:59:28.073Z,28.50
2019-02-06T02:00:28.198Z,28.30
2019-02-06T02:01:28.331Z,27.80
2019-02-06T02:02:28.453Z,28.50
2019-02-06T02:03:28.578Z,27.80
2019-02-06T02:04:28.709Z,26.70
2019-02-06T02:05:28.830Z,26.60
2019-02-06T02:06:28.960Z,27.30
2019-02-06T02:07:29.088Z,25.50
2019-02-06T02:08:29.215Z,25.40
2019-02-06T02:09:29.339Z,26.30
2019-02-06T02:10:29.461Z,26.70
2019-02-06T02:11:29.590Z,26.10
2019-02-06T02:12:29.723Z,26.50
2019-02-06T02:13:29.853Z,26.80
2019-02-06T02:14:29.978Z,26.80
2019-02-06T02:15:30.125Z,27.70
2019-02-06T02:16:30.777Z,28.50
2019-02-06T02:17:30.363Z,26.60
2019-02-06T02:18:30.528Z,27.30
2019-02-06T02:19:30.641Z,26.40
2019-02-06T02:20:30.770Z,26.20
2019-02-06T02:21:30.894Z,27.30
2019-02-06T02:22:31.063Z,26.30
2019-02-06T02:23:31.228Z,26.80
2019-02-06T02:24:31.354Z,26.40
2019-02-06T02:25:31.486Z,26.00
2019-02-06T02:26:31.609Z,25.80
2019-02-06T02:27:31.770Z,27.40
2019-02-06T02:28:31.900Z,26.90
2019-02-06T02:29:32.022Z,27.20
2019-02-06T02:30:32.157Z,26.90
2019-02-06T02:31:32.283Z,27.20
2019-02-06T02:32:32.407Z,28.50
2019-02-06T02:33:32.537Z,28.30
2019-02-06T02:34:32.687Z,28.60
2019-02-06T02:35:32.798Z,27.80
2019-02-06T02:36:32.972Z,27.00
2019-02-06T02:37:33.099Z,26.50
2019-02-06T02:38:33.237Z,26.50
2019-02-06T02:39:33.358Z,28.20
2019-02-06T02:40:33.485Z,27.60
2019-02-06T02:41:33.615Z,26.90
2019-02-06T02:42:33.753Z,25.50
2019-02-06T02:43:33.876Z,26.10
2019-02-06T02:44:34.007Z,25.80
2019-02-06T02:45:34.126Z,25.90
2019-02-06T02:46:34.280Z,26.90
2019-02-06T02:47:34.470Z,26.70
2019-02-06T02:48:34.467Z,26.20
2019-02-06T02:49:34.590Z,26.80
2019-02-06T02:50:34.754Z,26.80
2019-02-06T02:51:34.861Z,25.80
2019-02-06T02:52:34.993Z,26.80
2019-02-06T02:53:35.148Z,27.00
2019-02-06T02:54:35.275Z,26.70
2019-02-06T02:55:35.400Z,26.80
2019-02-06T02:56:35.518Z,28.20
2019-02-06T02:57:35.668Z,26.90
2019-02-06T02:58:35.867Z,27.00
2019-02-06T02:59:35.867Z,26.60
2019-02-06T03:00:35.991Z,28.20
2019-02-06T03:01:36.228Z,26.10
2019-02-06T03:02:36.288Z,25.60
2019-02-06T03:03:36.396Z,25.90
2019-02-06T03:04:36.521Z,25.90
2019-02-06T03:05:36.681Z,26.70
2019-02-06T03:06:36.777Z,26.30
2019-02-06T03:07:36.902Z,25.90
2019-02-06T03:08:37.032Z,26.10
2019-02-06T03:09:37.186Z,26.40
2019-02-06T03:10:37.389Z,26.30
2019-02-06T03:11:37.391Z,26.10
2019-02-06T03:12:37.516Z,25.80
2019-02-06T03:13:37.663Z,26.80
2019-02-06T03:14:37.821Z,26.60
2019-02-06T03:15:37.947Z,27.60
2019-02-06T03:16:38.074Z,27.50
2019-02-06T03:17:38.231Z,27.70
2019-02-06T03:18:38.360Z,28.50
2019-02-06T03:19:38.485Z,28.30
2019-02-06T03:20:38.616Z,28.10
2019-02-06T03:21:38.772Z,29.10
2019-02-06T03:22:38.898Z,28.80
2019-02-06T03:23:39.020Z,29.40
2019-02-06T03:24:39.149Z,28.80
2019-02-06T03:25:39.297Z,29.40
2019-02-06T03:26:39.413Z,29.70
2019-02-06T03:27:39.552Z,30.80
2019-02-06T03:28:39.671Z,31.00
2019-02-06T03:29:39.817Z,31.80
2019-02-06T03:30:39.940Z,31.40
2019-02-06T03:31:40.079Z,31.10
2019-02-06T03:32:40.199Z,32.30
2019-02-06T03:33:40.355Z,30.70
2019-02-06T03:34:40.485Z,32.10
2019-02-06T03:35:40.613Z,32.50
2019-02-06T03:36:41.026Z,32.50
2019-02-06T03:37:40.877Z,33.50
2019-02-06T03:38:41.002Z,32.60
2019-02-06T03:39:41.131Z,31.50
2019-02-06T03:40:41.254Z,32.90
2019-02-06T03:41:41.388Z,32.90
2019-02-06T03:42:41.525Z,30.80
2019-02-06T03:43:41.648Z,31.80
2019-02-06T03:44:41.776Z,31.70
2019-02-06T03:45:41.900Z,32.00
2019-02-06T03:46:42.027Z,32.10
2019-02-06T03:47:42.149Z,31.80
2019-02-06T03:48:42.275Z,32.30
2019-02-06T03:49:42.838Z,32.10
2019-02-06T03:50:42.535Z,34.00
2019-02-06T03:51:42.662Z,32.70
2019-02-06T03:52:42.787Z,32.50
2019-02-06T03:53:42.921Z,32.90
2019-02-06T03:54:43.042Z,32.60
2019-02-06T03:55:43.164Z,34.70
2019-02-06T03:56:43.296Z,33.20
2019-02-06T03:57:43.422Z,32.80
2019-02-06T03:58:43.566Z,33.80
2019-02-06T03:59:43.673Z,34.60
2019-02-06T04:00:43.802Z,33.30
2019-02-06T04:01:43.943Z,34.20
2019-02-06T04:02:44.057Z,35.10
2019-02-06T04:03:44.193Z,34.80
2019-02-06T04:04:44.316Z,35.10
2019-02-06T04:05:44.443Z,35.90
2019-02-06T04:06:53.474Z,35.80
2019-02-06T04:07:44.706Z,36.00
2019-02-06T04:08:44.823Z,35.00
2019-02-06T04:09:44.944Z,34.50
2019-02-06T04:10:45.715Z,35.10
2019-02-06T04:11:45.238Z,35.30
2019-02-06T04:12:45.367Z,36.10
2019-02-06T04:13:45.497Z,36.40
2019-02-06T04:14:45.620Z,36.60
2019-02-06T04:15:45.755Z,35.70
2019-02-06T04:16:45.871Z,35.80
2019-02-06T04:17:45.997Z,35.30
2019-02-06T04:18:46.121Z,35.80
2019-02-06T04:19:46.248Z,36.50
2019-02-06T04:20:46.381Z,36.60
2019-02-06T04:21:46.507Z,36.10
2019-02-06T04:22:46.634Z,35.00
2019-02-06T04:23:46.759Z,34.70
2019-02-06T04:24:46.950Z,33.20
2019-02-06T04:25:47.051Z,33.20
2019-02-06T04:26:47.167Z,33.50
2019-02-06T04:27:47.306Z,34.30
2019-02-06T04:28:47.450Z,32.80
2019-02-06T04:29:47.576Z,33.20
2019-02-06T04:30:47.699Z,32.90
2019-02-06T04:31:47.823Z,33.20
2019-02-06T04:32:47.996Z,33.30
2019-02-06T04:33:48.105Z,33.10
2019-02-06T04:34:48.229Z,33.60
2019-02-06T04:35:48.351Z,32.50
2019-02-06T04:36:48.503Z,31.80
2019-02-06T04:37:48.718Z,32.50
2019-02-06T04:38:48.726Z,31.30
2019-02-06T04:39:48.849Z,31.80
2019-02-06T04:40:49.042Z,32.60
2019-02-06T04:41:49.156Z,33.90
2019-02-06T04:42:49.282Z,33.70
2019-02-06T04:43:49.409Z,33.50
2019-02-06T04:44:49.549Z,33.60
2019-02-06T04:45:49.747Z,33.90
2019-02-06T04:46:49.787Z,33.90
2019-02-06T04:47:49.912Z,32.60
2019-02-06T04:48:50.056Z,33.00
2019-02-06T04:49:50.174Z,33.10
2019-02-06T04:50:50.304Z,33.20
2019-02-06T04:51:50.469Z,33.80
2019-02-06T04:52:50.602Z,31.70
2019-02-06T04:53:50.778Z,31.60
2019-02-06T04:54:50.779Z,33.00
2019-02-06T04:55:50.915Z,32.60
2019-02-06T04:56:51.050Z,31.30
2019-02-06T04:57:51.170Z,31.10
2019-02-06T04:58:51.296Z,31.40
2019-02-06T04:59:51.422Z,30.80
2019-02-06T05:00:51.583Z,29.70
2019-02-06T05:01:51.700Z,30.00
2019-02-06T05:02:51.829Z,29.30
2019-02-06T05:03:51.963Z,29.70
2019-02-06T05:04:52.089Z,29.70
2019-02-06T05:05:52.286Z,30.80
2019-02-06T05:06:52.404Z,30.50
2019-02-06T05:07:52.411Z,30.50
2019-02-06T05:08:52.559Z,30.80
2019-02-06T05:09:52.684Z,31.00
2019-02-06T05:10:52.810Z,31.70
2019-02-06T05:11:52.936Z,31.50
2019-02-06T05:12:53.103Z,31.60
2019-02-06T05:13:53.229Z,30.60
2019-02-06T05:14:53.354Z,31.30
2019-02-06T05:15:53.480Z,31.90
2019-02-06T05:16:53.622Z,30.80
2019-02-06T05:17:55.921Z,31.20
2019-02-06T05:18:53.872Z,31.90
2019-02-06T05:19:54.003Z,31.00
2019-02-06T05:20:54.127Z,31.20
2019-02-06T05:21:54.258Z,30.50
2019-02-06T05:22:54.394Z,30.50
2019-02-06T05:23:54.515Z,30.50
2019-02-06T05:24:54.637Z,30.20
2019-02-06T05:25:54.874Z,29.80
2019-02-06T05:26:54.885Z,30.70
2019-02-06T05:27:55.023Z,29.80
2019-02-06T05:28:55.142Z,30.40
2019-02-06T05:29:55.323Z,30.70
2019-02-06T05:30:55.395Z,30.20
2019-02-06T05:31:55.517Z,30.50
2019-02-06T05:32:55.646Z,29.60
2019-02-06T05:33:55.774Z,31.30
2019-02-06T05:34:55.904Z,30.40
2019-02-06T05:35:56.031Z,31.20
2019-02-06T05:36:56.156Z,30.00
2019-02-06T05:37:56.380Z,29.70
2019-02-06T05:38:56.403Z,30.90
2019-02-06T05:39:56.534Z,30.00
2019-02-06T05:40:56.670Z,31.10
2019-02-06T05:41:56.791Z,30.60
2019-02-06T05:42:56.917Z,30.60
2019-02-06T05:43:57.047Z,31.10
2019-02-06T05:44:57.174Z,31.30
2019-02-06T05:45:57.294Z,30.60
2019-02-06T05:46:57.422Z,30.30
2019-02-06T05:47:57.548Z,31.30
2019-02-06T05:48:57.672Z,31.40
2019-02-06T05:49:57.798Z,31.00
2019-02-06T05:50:57.927Z,31.20
2019-02-06T05:51:58.054Z,30.40
2019-02-06T05:52:58.173Z,30.40
2019-02-06T05:53:58.299Z,30.30
2019-02-06T05:54:58.422Z,29.50
2019-02-06T05:55:58.548Z,30.10
2019-02-06T05:56:58.678Z,30.00
2019-02-06T05:57:58.801Z,30.20
2019-02-06T05:58:58.925Z,30.40
2019-02-06T05:59:59.056Z,29.80
2019-02-06T06:00:59.187Z,29.40
2019-02-06T06:01:59.301Z,30.30
2019-02-06T06:03:00.105Z,30.20
2019-02-06T06:03:59.493Z,29.80
2019-02-06T06:04:59.622Z,29.60
2019-02-06T06:05:59.748Z,31.10
2019-02-06T06:06:59.885Z,27.90
2019-02-06T06:08:00.008Z,28.20
2019-02-06T06:09:00.129Z,29.30
2019-02-06T06:10:00.265Z,29.30
2019-02-06T06:11:00.382Z,29.20
2019-02-06T06:12:00.523Z,27.80
2019-02-06T06:13:00.633Z,29.00
2019-02-06T06:14:00.761Z,29.40
2019-02-06T06:15:00.883Z,28.30
2019-02-06T06:16:01.016Z,28.10
2019-02-06T06:17:01.165Z,28.90
2019-02-06T06:18:01.514Z,28.10
2019-02-06T06:19:01.398Z,29.10
2019-02-06T06:20:01.546Z,28.60
2019-02-06T06:21:01.667Z,27.90
2019-02-06T06:22:01.786Z,28.60
2019-02-06T06:23:01.911Z,27.70
2019-02-06T06:24:02.113Z,27.80
2019-02-06T06:25:02.176Z,27.60
2019-02-06T06:26:02.309Z,27.90
2019-02-06T06:27:02.444Z,27.60
2019-02-06T06:28:02.560Z,27.70
2019-02-06T06:29:02.681Z,28.10
2019-02-06T06:30:02.815Z,27.40
2019-02-06T06:31:02.933Z,26.80
2019-02-06T06:32:03.090Z,27.80
2019-02-06T06:33:03.322Z,28.70
2019-02-06T06:34:03.320Z,30.00
2019-02-06T06:35:03.462Z,28.80
2019-02-06T06:36:03.607Z,30.40
2019-02-06T06:37:03.729Z,28.80
2019-02-06T06:38:03.856Z,29.90
2019-02-06T06:39:04.093Z,30.40
2019-02-06T06:40:04.120Z,30.50
2019-02-06T06:41:04.298Z,30.20
2019-02-06T06:42:04.420Z,31.20
2019-02-06T06:43:04.547Z,30.20
2019-02-06T06:44:05.492Z,31.20
2019-02-06T06:45:04.832Z,30.90
2019-02-06T06:46:04.970Z,31.00
2019-02-06T06:47:05.094Z,32.60
2019-02-06T06:48:05.229Z,31.90
2019-02-06T06:49:05.345Z,31.60
2019-02-06T06:50:05.476Z,32.30
2019-02-06T06:51:05.597Z,33.20
2019-02-06T06:52:05.751Z,32.00
2019-02-06T06:53:05.869Z,30.80
2019-02-06T06:54:06.050Z,32.80
2019-02-06T06:55:06.123Z,32.80
2019-02-06T06:56:06.271Z,33.50
2019-02-06T06:57:06.392Z,31.80
2019-02-06T06:58:06.517Z,30.40
2019-02-06T06:59:06.642Z,32.30
2019-02-06T07:00:06.811Z,31.20
2019-02-06T07:01:06.947Z,32.30
2019-02-06T07:02:07.069Z,32.40
2019-02-06T07:03:07.195Z,30.40
2019-02-06T07:04:07.428Z,30.70
2019-02-06T07:05:07.439Z,30.60
2019-02-06T07:06:07.573Z,31.30
2019-02-06T07:07:07.712Z,31.20
2019-02-06T07:08:11.312Z,31.30
2019-02-06T07:09:07.996Z,32.60
2019-02-06T07:10:08.103Z,31.90
2019-02-06T07:11:08.233Z,32.10
2019-02-06T07:12:08.396Z,32.30
2019-02-06T07:13:08.505Z,32.60
2019-02-06T07:14:08.633Z,32.20
2019-02-06T07:15:08.752Z,32.50
2019-02-06T07:16:08.876Z,31.50
2019-02-06T07:17:09.004Z,31.00
2019-02-06T07:18:09.139Z,33.10
2019-02-06T07:19:09.265Z,31.60
2019-02-06T07:20:09.387Z,31.90
2019-02-06T07:21:09.531Z,30.80
2019-02-06T07:22:09.656Z,32.00
2019-02-06T07:23:09.777Z,32.00
2019-02-06T07:24:09.905Z,31.80
2019-02-06T07:25:10.039Z,30.80
2019-02-06T07:26:10.161Z,31.90
2019-02-06T07:27:10.290Z,30.50
2019-02-06T07:28:10.421Z,32.30
2019-02-06T07:29:10.545Z,31.10
2019-02-06T07:30:10.675Z,31.80
2019-02-06T07:31:10.800Z,31.80
2019-02-06T07:32:10.929Z,31.80
2019-02-06T07:33:11.059Z,31.40
2019-02-06T07:34:11.190Z,31.30
2019-02-06T07:35:11.321Z,31.60
2019-02-06T07:36:11.448Z,30.70
2019-02-06T07:37:11.576Z,32.40
2019-02-06T07:38:23.545Z,29.90
2019-02-06T07:39:11.829Z,31.70
2019-02-06T07:40:11.956Z,31.30
2019-02-06T07:41:12.082Z,32.10
2019-02-06T07:42:12.214Z,31.70
2019-02-06T07:43:12.338Z,30.30
2019-02-06T07:44:13.416Z,31.90
2019-02-06T07:45:12.605Z,31.90
2019-02-06T07:46:12.724Z,31.90
2019-02-06T07:47:12.846Z,30.30
2019-02-06T07:48:12.981Z,32.00
2019-02-06T07:49:13.109Z,31.40
2019-02-06T07:50:13.233Z,33.20
2019-02-06T07:51:13.360Z,32.90
2019-02-06T07:52:13.492Z,32.70
2019-02-06T07:53:13.633Z,33.90
2019-02-06T07:54:13.741Z,34.20
2019-02-06T07:55:13.867Z,33.80
2019-02-06T07:56:13.999Z,34.00
2019-02-06T07:57:14.118Z,33.40
2019-02-06T07:58:14.244Z,34.10
2019-02-06T07:59:14.379Z,35.10
2019-02-06T08:00:14.518Z,35.50
2019-02-06T08:01:14.639Z,35.20
2019-02-06T08:02:14.765Z,35.90
2019-02-06T08:03:14.899Z,34.80
2019-02-06T08:04:15.041Z,33.90
2019-02-06T08:05:15.165Z,35.30
2019-02-06T08:06:15.295Z,35.00
2019-02-06T08:07:15.428Z,33.90
2019-02-06T08:08:15.629Z,34.40
2019-02-06T08:09:15.708Z,36.30
2019-02-06T08:10:15.840Z,34.70
2019-02-06T08:11:15.962Z,33.60
2019-02-06T08:12:16.105Z,35.30
2019-02-06T08:13:16.260Z,34.40
2019-02-06T08:14:16.367Z,34.30
2019-02-06T08:15:16.490Z,34.00
2019-02-06T08:16:16.621Z,33.80
2019-02-06T08:17:16.740Z,35.10
2019-02-06T08:18:16.864Z,34.30
2019-02-06T08:19:16.992Z,34.50
2019-02-06T08:20:17.142Z,34.90
2019-02-06T08:21:17.346Z,33.70
2019-02-06T08:22:17.354Z,33.60
2019-02-06T08:23:17.480Z,34.60
2019-02-06T08:24:17.630Z,33.30
2019-02-06T08:25:17.765Z,33.00
2019-02-06T08:26:17.891Z,32.80
2019-02-06T08:27:18.033Z,33.20
2019-02-06T08:28:18.180Z,33.80
2019-02-06T08:29:18.311Z,34.00
2019-02-06T08:30:18.435Z,35.00
2019-02-06T08:31:18.563Z,33.80
2019-02-06T08:32:18.740Z,32.90
2019-02-06T08:33:18.870Z,33.10
2019-02-06T08:34:18.982Z,32.00
2019-02-06T08:35:19.117Z,33.00
2019-02-06T08:36:19.268Z,32.40
2019-02-06T08:37:19.392Z,31.70
2019-02-06T08:38:19.521Z,32.00
2019-02-06T08:39:19.653Z,32.10
2019-02-06T08:40:19.795Z,32.80
2019-02-06T08:41:20.008Z,32.00
2019-02-06T08:42:20.053Z,33.60
2019-02-06T08:43:20.181Z,31.70
2019-02-06T08:44:20.305Z,32.40
2019-02-06T08:45:20.450Z,32.20
2019-02-06T08:46:20.580Z,33.10
2019-02-06T08:47:20.736Z,34.10
2019-02-06T08:48:20.908Z,33.70
2019-02-06T08:49:21.035Z,34.30
2019-02-06T08:50:21.166Z,33.20
2019-02-06T08:51:21.292Z,35.40
2019-02-06T08:52:21.417Z,33.60
2019-02-06T08:53:21.557Z,35.10
2019-02-06T08:54:21.683Z,34.20
2019-02-06T08:55:21.810Z,34.00
2019-02-06T08:56:21.941Z,35.20
2019-02-06T08:57:22.080Z,34.00
2019-02-06T08:58:22.211Z,35.90
2019-02-06T08:59:22.336Z,36.80
2019-02-06T09:00:22.474Z,37.70
2019-02-06T09:01:22.607Z,37.60
2019-02-06T09:02:22.741Z,37.50
2019-02-06T09:03:22.858Z,38.20
2019-02-06T09:04:22.983Z,36.50
2019-02-06T09:05:23.117Z,37.60
2019-02-06T09:06:23.243Z,36.30
2019-02-06T09:07:23.370Z,38.00
2019-02-06T09:08:23.496Z,37.50
2019-02-06T09:09:23.626Z,37.00
2019-02-06T09:10:23.753Z,37.10
2019-02-06T09:11:23.881Z,37.80
2019-02-06T09:12:24.012Z,36.90
2019-02-06T09:13:24.138Z,37.90
2019-02-06T09:14:24.267Z,36.00
2019-02-06T09:15:27.183Z,38.20
2019-02-06T09:16:24.552Z,38.00
2019-02-06T09:17:24.683Z,38.00
2019-02-06T09:18:24.799Z,36.40
2019-02-06T09:19:24.951Z,36.70
2019-02-06T09:20:25.081Z,37.50
2019-02-06T09:21:25.207Z,37.50
2019-02-06T09:22:25.344Z,37.40
2019-02-06T09:23:25.489Z,39.70
2019-02-06T09:24:25.608Z,40.00
2019-02-06T09:25:25.746Z,40.40
2019-02-06T09:26:25.887Z,39.50
2019-02-06T09:27:26.012Z,38.70
2019-02-06T09:28:26.193Z,38.90
2019-02-06T09:29:26.319Z,40.40
2019-02-06T09:30:26.459Z,40.20
2019-02-06T09:31:26.620Z,40.70
2019-02-06T09:32:26.841Z,39.70
2019-02-06T09:33:26.841Z,40.50
2019-02-06T09:34:26.984Z,41.10
2019-02-06T09:35:27.144Z,41.30
2019-02-06T09:36:27.270Z,41.60
2019-02-06T09:37:27.396Z,40.90
2019-02-06T09:38:27.524Z,41.10
2019-02-06T09:39:27.665Z,40.70
2019-02-06T09:40:27.799Z,40.10
2019-02-06T09:41:27.916Z,40.50
2019-02-06T09:42:28.042Z,41.20
2019-02-06T09:43:28.216Z,40.60
2019-02-06T09:44:28.349Z,41.00
2019-02-06T09:45:28.482Z,40.80
2019-02-06T09:46:28.606Z,40.10
2019-02-06T09:47:28.789Z,40.30
2019-02-06T09:48:28.900Z,38.80
2019-02-06T09:49:29.029Z,37.90
2019-02-06T09:50:29.162Z,38.80
2019-02-06T09:51:29.292Z,37.90
2019-02-06T09:52:29.412Z,37.30
2019-02-06T09:53:29.544Z,39.10
2019-02-06T09:54:29.674Z,39.70
2019-02-06T09:55:29.829Z,38.90
2019-02-06T09:56:29.956Z,39.20
2019-02-06T09:57:30.082Z,39.60
2019-02-06T09:58:30.212Z,40.00
2019-02-06T09:59:30.362Z,39.40
2019-02-06T10:00:30.493Z,39.30
2019-02-06T10:01:30.628Z,38.10
2019-02-06T10:02:30.756Z,37.10
2019-02-06T10:03:30.909Z,38.40
2019-02-06T10:04:31.041Z,37.30
2019-02-06T10:05:31.159Z,38.90
2019-02-06T10:06:31.287Z,38.60
2019-02-06T10:07:31.458Z,38.80
2019-02-06T10:08:31.582Z,37.90
2019-02-06T10:09:31.713Z,39.40
2019-02-06T10:10:31.839Z,37.40
2019-02-06T10:11:32.000Z,38.00
2019-02-06T10:12:32.130Z,35.80
2019-02-06T10:13:32.263Z,36.60
2019-02-06T10:14:32.386Z,35.30
2019-02-06T10:15:32.639Z,35.10
2019-02-06T10:16:32.645Z,37.30
2019-02-06T10:17:32.779Z,36.20
2019-02-06T10:18:32.916Z,35.70
2019-02-06T10:19:33.041Z,35.30
2019-02-06T10:20:33.170Z,32.90
2019-02-06T10:21:33.302Z,33.80
2019-02-06T10:22:33.436Z,33.40
2019-02-06T10:23:33.561Z,33.10
2019-02-06T10:24:33.690Z,32.00
2019-02-06T10:25:33.818Z,32.00
2019-02-06T10:26:33.953Z,31.00
2019-02-06T10:27:34.075Z,32.20
2019-02-06T10:28:34.206Z,28.80
2019-02-06T10:29:34.337Z,30.40
2019-02-06T10:30:34.469Z,29.70
2019-02-06T10:31:34.604Z,29.60
2019-02-06T10:32:34.733Z,28.70
2019-02-06T10:33:34.866Z,28.30
2019-02-06T10:34:34.998Z,28.40
2019-02-06T10:35:35.126Z,28.20
2019-02-06T10:36:35.259Z,29.10
2019-02-06T10:37:35.382Z,27.90
2019-02-06T10:38:35.523Z,27.90
2019-02-06T10:39:35.645Z,27.90
2019-02-06T10:40:35.776Z,28.50
2019-02-06T10:41:35.905Z,28.60
2019-02-06T10:42:36.102Z,27.80
2019-02-06T10:43:36.224Z,27.10
2019-02-06T10:44:36.330Z,28.50
2019-02-06T10:45:36.465Z,27.00
2019-02-06T10:46:36.599Z,26.80
2019-02-06T10:47:36.733Z,27.10
2019-02-06T10:48:36.912Z,27.50
2019-02-06T10:49:37.042Z,27.40
2019-02-06T10:50:37.171Z,26.90
2019-02-06T10:51:37.302Z,26.10
2019-02-06T10:52:37.490Z,25.90
2019-02-06T10:53:37.620Z,24.80
2019-02-06T10:54:37.759Z,25.80
2019-02-06T10:55:37.881Z,24.80
2019-02-06T10:56:38.062Z,24.00
2019-02-06T10:57:38.189Z,24.10
2019-02-06T10:58:38.319Z,23.50
2019-02-06T10:59:38.472Z,24.10
2019-02-06T11:00:38.687Z,24.30
2019-02-06T11:01:38.701Z,24.30
2019-02-06T11:02:38.882Z,25.00
2019-02-06T11:03:39.030Z,23.70
2019-02-06T11:04:39.160Z,23.20
2019-02-06T11:05:39.296Z,23.80
2019-02-06T11:06:39.426Z,24.60
2019-02-06T11:07:39.570Z,24.60
2019-02-06T11:08:40.446Z,24.80
2019-02-06T11:09:46.090Z,24.60
2019-02-06T11:10:40.022Z,25.30
2019-02-06T11:11:40.156Z,25.50
2019-02-06T11:12:40.290Z,23.50
2019-02-06T11:13:40.456Z,23.30
2019-02-06T11:14:40.629Z,25.80
2019-02-06T11:15:40.751Z,25.70
2019-02-06T11:16:40.892Z,25.10
2019-02-06T11:17:41.033Z,24.80
2019-02-06T11:18:44.256Z,24.00
2019-02-06T11:19:43.171Z,25.30
2019-02-06T11:20:41.422Z,25.30
2019-02-06T11:21:41.562Z,24.40
2019-02-06T11:22:41.693Z,25.40
2019-02-06T11:23:41.832Z,24.50
2019-02-06T11:24:43.041Z,24.90
2019-02-06T11:25:42.050Z,25.00
2019-02-06T11:26:42.188Z,25.00
2019-02-06T11:27:42.337Z,24.60
2019-02-06T11:28:42.563Z,24.00
2019-02-06T11:29:42.574Z,24.20
2019-02-06T11:30:42.712Z,24.20
2019-02-06T11:31:42.862Z,22.90
2019-02-06T11:32:42.991Z,22.70
2019-02-06T11:33:43.122Z,23.00
2019-02-06T11:34:43.268Z,22.60
2019-02-06T11:35:43.402Z,22.80
2019-02-06T11:36:43.533Z,23.40
2019-02-06T11:37:44.514Z,23.40
2019-02-06T11:38:43.803Z,22.30
2019-02-06T11:39:43.932Z,22.20
2019-02-06T11:40:44.056Z,21.80
2019-02-06T11:41:44.197Z,21.50
2019-02-06T11:42:44.324Z,22.60
2019-02-06T11:43:44.455Z,22.10
2019-02-06T11:44:44.642Z,22.10
2019-02-06T11:45:44.719Z,21.40
2019-02-06T11:46:45.515Z,21.30
2019-02-06T11:47:45.052Z,21.90
2019-02-06T11:48:45.186Z,21.10
2019-02-06T11:49:45.321Z,20.90
2019-02-06T11:50:45.454Z,20.40
2019-02-06T11:51:45.587Z,21.40
2019-02-06T11:52:45.725Z,21.30
2019-02-06T11:53:45.860Z,20.80
2019-02-06T11:54:45.993Z,20.90
2019-02-06T11:55:46.125Z,20.70
2019-02-06T11:56:46.259Z,20.70
2019-02-06T11:57:46.390Z,19.70
2019-02-06T11:58:46.543Z,20.10
2019-02-06T11:59:46.660Z,19.80
2019-02-06T12:00:48.566Z,20.00
2019-02-06T12:01:46.923Z,19.90
2019-02-06T12:02:47.061Z,19.90
2019-02-06T12:03:48.016Z,19.80
2019-02-06T12:04:47.305Z,18.90
2019-02-06T12:05:47.442Z,19.20
2019-02-06T12:06:47.579Z,19.70
2019-02-06T12:07:47.715Z,19.30
2019-02-06T12:08:47.844Z,20.50
2019-02-06T12:09:47.991Z,20.30
2019-02-06T12:10:48.124Z,20.50
2019-02-06T12:11:48.250Z,20.10
2019-02-06T12:12:48.405Z,20.30
2019-02-06T12:13:48.545Z,19.60
2019-02-06T12:14:48.679Z,19.20
2019-02-06T12:15:48.861Z,19.10
2019-02-06T12:16:48.961Z,19.30
2019-02-06T12:17:49.110Z,18.70
2019-02-06T12:18:49.257Z,18.70
2019-02-06T12:19:49.390Z,18.90
2019-02-06T12:20:49.526Z,18.50
2019-02-06T12:21:49.667Z,18.90
2019-02-06T12:22:49.822Z,19.60
2019-02-06T12:23:49.954Z,19.00
2019-02-06T12:24:50.091Z,19.10
2019-02-06T12:25:50.220Z,18.70
2019-02-06T12:26:50.388Z,18.10
2019-02-06T12:27:50.518Z,19.40
2019-02-06T12:28:50.650Z,19.30
2019-02-06T12:29:50.783Z,19.00
2019-02-06T12:30:50.921Z,17.50
2019-02-06T12:31:51.068Z,18.40
2019-02-06T12:32:52.372Z,17.80
2019-02-06T12:33:51.346Z,19.30
2019-02-06T12:34:51.510Z,18.20
2019-02-06T12:35:51.708Z,17.70
2019-02-06T12:36:51.721Z,16.90
2019-02-06T12:37:51.859Z,17.30
2019-02-06T12:38:53.825Z,18.10
2019-02-06T12:41:24.454Z,16.50
2019-02-06T12:42:24.589Z,17.70
2019-02-06T12:43:24.727Z,17.00
2019-02-06T12:44:24.864Z,16.50
2019-02-06T12:45:24.997Z,16.40
2019-02-06T12:46:25.131Z,16.70
2019-02-06T12:47:26.893Z,16.90
2019-02-06T12:48:25.404Z,16.70
2019-02-06T12:49:25.547Z,17.00
2019-02-06T12:50:25.677Z,16.80
2019-02-06T12:51:25.809Z,16.80
2019-02-06T12:52:25.942Z,16.90
2019-02-06T12:53:26.075Z,17.60
2019-02-06T12:54:26.217Z,17.50
2019-02-06T12:55:26.363Z,17.30
2019-02-06T12:56:26.493Z,17.20
2019-02-06T12:57:36.192Z,17.20